sensor_id;sensor_type;location;lat;lon;timestamp;P1;durP1;ratioP1;P2;durP2;ratioP2
37943;SDS011;23767;42.024;23.086;2024-01-25T00:00:54;19.47;;;12.50;;
37943;SDS011;23767;42.024;23.086;2024-01-25T00:03:20;19.27;;;13.20;;
37943;SDS011;23767;42.024;23.086;2024-01-25T00:05:46;20.57;;;13.50;;
37943;SDS011;23767;42.024;23.086;2024-01-25T00:08:12;19.57;;;13.37;;
37943;SDS011;23767;42.024;23.086;2024-01-25T00:10:39;19.13;;;13.47;;
37943;SDS011;23767;42.024;23.086;2024-01-25T00:13:04;19.10;;;13.80;;
37943;SDS011;23767;42.024;23.086;2024-01-25T00:15:30;20.93;;;13.73;;
37943;SDS011;23767;42.024;23.086;2024-01-25T00:17:56;20.87;;;13.60;;
37943;SDS011;23767;42.024;23.086;2024-01-25T00:20:22;22.90;;;14.93;;
37943;SDS011;23767;42.024;23.086;2024-01-25T00:22:47;24.83;;;16.60;;
37943;SDS011;23767;42.024;23.086;2024-01-25T00:25:13;24.10;;;17.03;;
37943;SDS011;23767;42.024;23.086;2024-01-25T00:27:39;26.77;;;18.47;;
37943;SDS011;23767;42.024;23.086;2024-01-25T00:30:05;25.23;;;18.10;;
37943;SDS011;23767;42.024;23.086;2024-01-25T00:32:31;24.20;;;16.90;;
37943;SDS011;23767;42.024;23.086;2024-01-25T00:34:57;22.27;;;16.23;;
37943;SDS011;23767;42.024;23.086;2024-01-25T00:37:23;19.13;;;14.60;;
37943;SDS011;23767;42.024;23.086;2024-01-25T00:39:49;19.53;;;13.63;;
37943;SDS011;23767;42.024;23.086;2024-01-25T00:42:15;19.67;;;13.63;;
37943;SDS011;23767;42.024;23.086;2024-01-25T00:44:41;16.50;;;11.93;;
37943;SDS011;23767;42.024;23.086;2024-01-25T00:47:07;20.10;;;13.80;;
37943;SDS011;23767;42.024;23.086;2024-01-25T00:49:34;22.47;;;14.80;;
37943;SDS011;23767;42.024;23.086;2024-01-25T00:52:00;19.30;;;14.93;;
37943;SDS011;23767;42.024;23.086;2024-01-25T00:54:29;19.77;;;14.80;;
37943;SDS011;23767;42.024;23.086;2024-01-25T00:56:54;20.67;;;16.33;;
37943;SDS011;23767;42.024;23.086;2024-01-25T00:59:20;20.27;;;14.40;;
37943;SDS011;23767;42.024;23.086;2024-01-25T01:01:47;20.63;;;15.23;;
37943;SDS011;23767;42.024;23.086;2024-01-25T01:04:13;21.77;;;16.67;;
37943;SDS011;23767;42.024;23.086;2024-01-25T01:06:40;21.07;;;16.10;;
37943;SDS011;23767;42.024;23.086;2024-01-25T01:09:06;22.97;;;16.40;;
37943;SDS011;23767;42.024;23.086;2024-01-25T01:11:33;23.10;;;17.00;;
37943;SDS011;23767;42.024;23.086;2024-01-25T01:13:59;21.80;;;16.07;;
37943;SDS011;23767;42.024;23.086;2024-01-25T01:16:24;22.17;;;16.03;;
37943;SDS011;23767;42.024;23.086;2024-01-25T01:18:51;25.30;;;18.00;;
37943;SDS011;23767;42.024;23.086;2024-01-25T01:21:16;26.47;;;18.50;;
37943;SDS011;23767;42.024;23.086;2024-01-25T01:23:42;27.00;;;19.80;;
37943;SDS011;23767;42.024;23.086;2024-01-25T01:26:07;29.67;;;20.57;;
37943;SDS011;23767;42.024;23.086;2024-01-25T01:28:33;27.50;;;19.10;;
37943;SDS011;23767;42.024;23.086;2024-01-25T01:30:59;26.87;;;19.10;;
37943;SDS011;23767;42.024;23.086;2024-01-25T01:33:24;27.30;;;18.67;;
37943;SDS011;23767;42.024;23.086;2024-01-25T01:35:50;24.57;;;19.30;;
37943;SDS011;23767;42.024;23.086;2024-01-25T01:38:15;24.53;;;19.30;;
37943;SDS011;23767;42.024;23.086;2024-01-25T01:40:41;23.70;;;16.33;;
37943;SDS011;23767;42.024;23.086;2024-01-25T01:43:17;20.07;;;15.17;;
37943;SDS011;23767;42.024;23.086;2024-01-25T01:45:43;19.40;;;13.63;;
37943;SDS011;23767;42.024;23.086;2024-01-25T01:48:09;18.37;;;13.30;;
37943;SDS011;23767;42.024;23.086;2024-01-25T01:50:34;18.13;;;13.23;;
37943;SDS011;23767;42.024;23.086;2024-01-25T01:53:00;17.13;;;10.60;;
37943;SDS011;23767;42.024;23.086;2024-01-25T01:55:26;14.60;;;11.10;;
37943;SDS011;23767;42.024;23.086;2024-01-25T01:57:52;16.90;;;11.70;;
37943;SDS011;23767;42.024;23.086;2024-01-25T02:00:18;17.60;;;12.40;;
37943;SDS011;23767;42.024;23.086;2024-01-25T02:02:45;17.60;;;11.73;;
37943;SDS011;23767;42.024;23.086;2024-01-25T02:05:12;15.77;;;12.17;;
37943;SDS011;23767;42.024;23.086;2024-01-25T02:07:38;20.50;;;14.93;;
37943;SDS011;23767;42.024;23.086;2024-01-25T02:10:05;23.67;;;17.10;;
37943;SDS011;23767;42.024;23.086;2024-01-25T02:12:32;22.80;;;17.30;;
37943;SDS011;23767;42.024;23.086;2024-01-25T02:14:57;22.53;;;16.60;;
37943;SDS011;23767;42.024;23.086;2024-01-25T02:17:23;22.43;;;15.83;;
37943;SDS011;23767;42.024;23.086;2024-01-25T02:19:49;22.87;;;15.97;;
37943;SDS011;23767;42.024;23.086;2024-01-25T02:22:16;23.23;;;16.80;;
37943;SDS011;23767;42.024;23.086;2024-01-25T02:24:43;19.00;;;14.30;;
37943;SDS011;23767;42.024;23.086;2024-01-25T02:27:09;20.40;;;14.97;;
37943;SDS011;23767;42.024;23.086;2024-01-25T02:29:35;22.63;;;16.23;;
37943;SDS011;23767;42.024;23.086;2024-01-25T02:32:00;22.10;;;15.47;;
37943;SDS011;23767;42.024;23.086;2024-01-25T02:34:26;20.43;;;14.97;;
37943;SDS011;23767;42.024;23.086;2024-01-25T02:36:52;19.23;;;14.30;;
37943;SDS011;23767;42.024;23.086;2024-01-25T02:39:17;19.10;;;15.63;;
37943;SDS011;23767;42.024;23.086;2024-01-25T02:41:43;19.13;;;15.77;;
37943;SDS011;23767;42.024;23.086;2024-01-25T02:44:09;18.53;;;14.77;;
37943;SDS011;23767;42.024;23.086;2024-01-25T02:46:36;21.43;;;15.10;;
37943;SDS011;23767;42.024;23.086;2024-01-25T02:49:01;20.17;;;15.17;;
37943;SDS011;23767;42.024;23.086;2024-01-25T02:51:27;20.27;;;15.07;;
37943;SDS011;23767;42.024;23.086;2024-01-25T02:53:53;23.33;;;17.33;;
37943;SDS011;23767;42.024;23.086;2024-01-25T02:56:19;23.40;;;17.37;;
37943;SDS011;23767;42.024;23.086;2024-01-25T02:58:44;21.77;;;17.07;;
37943;SDS011;23767;42.024;23.086;2024-01-25T03:01:10;23.07;;;17.10;;
37943;SDS011;23767;42.024;23.086;2024-01-25T03:03:35;23.60;;;17.27;;
37943;SDS011;23767;42.024;23.086;2024-01-25T03:06:02;21.93;;;16.33;;
37943;SDS011;23767;42.024;23.086;2024-01-25T03:08:27;22.67;;;17.13;;
37943;SDS011;23767;42.024;23.086;2024-01-25T03:10:53;21.80;;;16.23;;
37943;SDS011;23767;42.024;23.086;2024-01-25T03:13:19;22.20;;;16.13;;
37943;SDS011;23767;42.024;23.086;2024-01-25T03:15:45;24.23;;;17.60;;
37943;SDS011;23767;42.024;23.086;2024-01-25T03:18:11;21.50;;;16.77;;
37943;SDS011;23767;42.024;23.086;2024-01-25T03:20:36;27.63;;;21.90;;
37943;SDS011;23767;42.024;23.086;2024-01-25T03:23:02;19.93;;;16.00;;
37943;SDS011;23767;42.024;23.086;2024-01-25T03:25:28;22.23;;;16.87;;
37943;SDS011;23767;42.024;23.086;2024-01-25T03:27:53;21.33;;;15.27;;
37943;SDS011;23767;42.024;23.086;2024-01-25T03:30:19;25.70;;;19.80;;
37943;SDS011;23767;42.024;23.086;2024-01-25T03:32:45;19.63;;;15.60;;
37943;SDS011;23767;42.024;23.086;2024-01-25T03:35:11;21.37;;;17.60;;
37943;SDS011;23767;42.024;23.086;2024-01-25T03:37:38;22.77;;;17.50;;
37943;SDS011;23767;42.024;23.086;2024-01-25T03:40:04;21.37;;;15.13;;
37943;SDS011;23767;42.024;23.086;2024-01-25T03:42:30;19.77;;;15.33;;
37943;SDS011;23767;42.024;23.086;2024-01-25T03:44:56;21.77;;;16.53;;
37943;SDS011;23767;42.024;23.086;2024-01-25T03:47:22;21.40;;;16.03;;
37943;SDS011;23767;42.024;23.086;2024-01-25T03:49:48;20.30;;;15.20;;
37943;SDS011;23767;42.024;23.086;2024-01-25T03:52:14;22.03;;;16.60;;
37943;SDS011;23767;42.024;23.086;2024-01-25T03:54:39;23.57;;;18.00;;
37943;SDS011;23767;42.024;23.086;2024-01-25T03:57:05;24.13;;;19.10;;
37943;SDS011;23767;42.024;23.086;2024-01-25T03:59:31;24.37;;;19.13;;
37943;SDS011;23767;42.024;23.086;2024-01-25T04:01:57;22.67;;;18.23;;
37943;SDS011;23767;42.024;23.086;2024-01-25T04:04:22;21.80;;;17.23;;
37943;SDS011;23767;42.024;23.086;2024-01-25T04:06:48;23.40;;;17.10;;
37943;SDS011;23767;42.024;23.086;2024-01-25T04:09:14;22.53;;;16.90;;
37943;SDS011;23767;42.024;23.086;2024-01-25T04:11:42;20.70;;;17.03;;
37943;SDS011;23767;42.024;23.086;2024-01-25T04:14:08;22.83;;;17.63;;
37943;SDS011;23767;42.024;23.086;2024-01-25T04:16:34;21.57;;;17.43;;
37943;SDS011;23767;42.024;23.086;2024-01-25T04:19:00;28.27;;;20.57;;
37943;SDS011;23767;42.024;23.086;2024-01-25T04:21:26;22.17;;;18.07;;
37943;SDS011;23767;42.024;23.086;2024-01-25T04:23:52;21.50;;;18.07;;
37943;SDS011;23767;42.024;23.086;2024-01-25T04:26:18;24.47;;;18.30;;
37943;SDS011;23767;42.024;23.086;2024-01-25T04:28:44;24.70;;;19.83;;
37943;SDS011;23767;42.024;23.086;2024-01-25T04:31:09;23.20;;;19.43;;
37943;SDS011;23767;42.024;23.086;2024-01-25T04:33:35;22.83;;;17.87;;
37943;SDS011;23767;42.024;23.086;2024-01-25T04:36:03;25.37;;;19.80;;
37943;SDS011;23767;42.024;23.086;2024-01-25T04:38:29;25.87;;;19.97;;
37943;SDS011;23767;42.024;23.086;2024-01-25T04:40:54;25.23;;;19.93;;
37943;SDS011;23767;42.024;23.086;2024-01-25T04:43:20;26.27;;;21.17;;
37943;SDS011;23767;42.024;23.086;2024-01-25T04:45:46;28.87;;;21.03;;
37943;SDS011;23767;42.024;23.086;2024-01-25T04:48:11;30.27;;;21.77;;
37943;SDS011;23767;42.024;23.086;2024-01-25T04:50:37;31.93;;;23.93;;
37943;SDS011;23767;42.024;23.086;2024-01-25T04:53:04;27.50;;;21.50;;
37943;SDS011;23767;42.024;23.086;2024-01-25T04:55:30;26.50;;;21.23;;
37943;SDS011;23767;42.024;23.086;2024-01-25T04:57:55;29.03;;;21.50;;
37943;SDS011;23767;42.024;23.086;2024-01-25T05:02:56;27.27;;;20.87;;
37943;SDS011;23767;42.024;23.086;2024-01-25T05:05:22;25.13;;;19.07;;
37943;SDS011;23767;42.024;23.086;2024-01-25T05:07:48;24.97;;;19.27;;
37943;SDS011;23767;42.024;23.086;2024-01-25T05:10:13;27.83;;;20.60;;
37943;SDS011;23767;42.024;23.086;2024-01-25T05:12:39;26.83;;;21.00;;
37943;SDS011;23767;42.024;23.086;2024-01-25T05:15:05;27.50;;;19.70;;
37943;SDS011;23767;42.024;23.086;2024-01-25T05:17:30;27.83;;;20.43;;
37943;SDS011;23767;42.024;23.086;2024-01-25T05:19:56;26.33;;;20.27;;
37943;SDS011;23767;42.024;23.086;2024-01-25T05:22:22;24.17;;;18.77;;
37943;SDS011;23767;42.024;23.086;2024-01-25T05:24:48;26.80;;;19.97;;
37943;SDS011;23767;42.024;23.086;2024-01-25T05:27:13;28.43;;;20.73;;
37943;SDS011;23767;42.024;23.086;2024-01-25T05:29:39;26.47;;;20.53;;
37943;SDS011;23767;42.024;23.086;2024-01-25T05:32:05;26.00;;;20.43;;
37943;SDS011;23767;42.024;23.086;2024-01-25T05:34:30;27.37;;;20.97;;
37943;SDS011;23767;42.024;23.086;2024-01-25T05:36:56;29.90;;;22.67;;
37943;SDS011;23767;42.024;23.086;2024-01-25T05:39:22;22.93;;;17.43;;
37943;SDS011;23767;42.024;23.086;2024-01-25T05:41:47;27.17;;;20.87;;
37943;SDS011;23767;42.024;23.086;2024-01-25T05:44:13;28.00;;;22.10;;
37943;SDS011;23767;42.024;23.086;2024-01-25T05:46:39;26.67;;;21.33;;
37943;SDS011;23767;42.024;23.086;2024-01-25T05:49:05;36.67;;;26.87;;
37943;SDS011;23767;42.024;23.086;2024-01-25T05:51:31;27.30;;;21.80;;
37943;SDS011;23767;42.024;23.086;2024-01-25T05:53:56;28.30;;;22.03;;
37943;SDS011;23767;42.024;23.086;2024-01-25T05:56:22;31.63;;;22.50;;
37943;SDS011;23767;42.024;23.086;2024-01-25T05:58:48;30.03;;;23.23;;
37943;SDS011;23767;42.024;23.086;2024-01-25T06:01:13;29.30;;;22.93;;
37943;SDS011;23767;42.024;23.086;2024-01-25T06:03:39;32.43;;;23.97;;
37943;SDS011;23767;42.024;23.086;2024-01-25T06:06:05;31.03;;;24.47;;
37943;SDS011;23767;42.024;23.086;2024-01-25T06:08:33;29.07;;;22.30;;
37943;SDS011;23767;42.024;23.086;2024-01-25T06:10:59;28.53;;;21.97;;
37943;SDS011;23767;42.024;23.086;2024-01-25T06:13:25;27.00;;;20.90;;
37943;SDS011;23767;42.024;23.086;2024-01-25T06:15:50;24.33;;;20.73;;
37943;SDS011;23767;42.024;23.086;2024-01-25T06:18:16;21.93;;;17.70;;
37943;SDS011;23767;42.024;23.086;2024-01-25T06:20:41;26.03;;;20.53;;
37943;SDS011;23767;42.024;23.086;2024-01-25T06:23:09;23.07;;;18.30;;
37943;SDS011;23767;42.024;23.086;2024-01-25T06:25:34;23.93;;;20.20;;
37943;SDS011;23767;42.024;23.086;2024-01-25T06:28:01;25.87;;;20.37;;
37943;SDS011;23767;42.024;23.086;2024-01-25T06:30:28;25.90;;;19.77;;
37943;SDS011;23767;42.024;23.086;2024-01-25T06:32:54;25.67;;;20.53;;
37943;SDS011;23767;42.024;23.086;2024-01-25T06:35:20;27.67;;;21.60;;
37943;SDS011;23767;42.024;23.086;2024-01-25T06:37:45;25.17;;;20.20;;
37943;SDS011;23767;42.024;23.086;2024-01-25T06:40:11;25.33;;;19.73;;
37943;SDS011;23767;42.024;23.086;2024-01-25T06:42:37;22.57;;;18.27;;
37943;SDS011;23767;42.024;23.086;2024-01-25T06:45:03;25.83;;;20.73;;
37943;SDS011;23767;42.024;23.086;2024-01-25T06:47:29;22.63;;;18.77;;
37943;SDS011;23767;42.024;23.086;2024-01-25T06:49:54;25.40;;;20.30;;
37943;SDS011;23767;42.024;23.086;2024-01-25T06:52:20;24.30;;;20.20;;
37943;SDS011;23767;42.024;23.086;2024-01-25T06:54:46;27.33;;;20.10;;
37943;SDS011;23767;42.024;23.086;2024-01-25T06:57:11;26.63;;;21.00;;
37943;SDS011;23767;42.024;23.086;2024-01-25T06:59:39;26.70;;;21.37;;
37943;SDS011;23767;42.024;23.086;2024-01-25T07:02:05;25.93;;;20.33;;
37943;SDS011;23767;42.024;23.086;2024-01-25T07:04:31;28.33;;;22.43;;
37943;SDS011;23767;42.024;23.086;2024-01-25T07:06:58;30.77;;;23.13;;
37943;SDS011;23767;42.024;23.086;2024-01-25T07:09:25;29.03;;;23.33;;
37943;SDS011;23767;42.024;23.086;2024-01-25T07:11:50;29.93;;;22.43;;
37943;SDS011;23767;42.024;23.086;2024-01-25T07:14:16;29.00;;;22.27;;
37943;SDS011;23767;42.024;23.086;2024-01-25T07:16:42;27.30;;;22.47;;
37943;SDS011;23767;42.024;23.086;2024-01-25T07:19:07;26.93;;;22.57;;
37943;SDS011;23767;42.024;23.086;2024-01-25T07:21:33;29.00;;;23.80;;
37943;SDS011;23767;42.024;23.086;2024-01-25T07:24:00;29.48;;;23.00;;
37943;SDS011;23767;42.024;23.086;2024-01-25T07:26:27;29.13;;;22.47;;
37943;SDS011;23767;42.024;23.086;2024-01-25T07:28:53;32.13;;;24.42;;
37943;SDS011;23767;42.024;23.086;2024-01-25T07:31:23;30.60;;;22.75;;
37943;SDS011;23767;42.024;23.086;2024-01-25T07:33:50;31.98;;;26.10;;
37943;SDS011;23767;42.024;23.086;2024-01-25T07:36:16;34.72;;;26.10;;
37943;SDS011;23767;42.024;23.086;2024-01-25T07:38:43;33.80;;;26.65;;
37943;SDS011;23767;42.024;23.086;2024-01-25T07:41:09;33.63;;;25.48;;
37943;SDS011;23767;42.024;23.086;2024-01-25T07:43:34;30.88;;;25.17;;
37943;SDS011;23767;42.024;23.086;2024-01-25T07:46:00;30.60;;;23.98;;
37943;SDS011;23767;42.024;23.086;2024-01-25T07:48:26;27.95;;;21.45;;
37943;SDS011;23767;42.024;23.086;2024-01-25T07:50:51;24.35;;;19.67;;
37943;SDS011;23767;42.024;23.086;2024-01-25T07:53:17;28.13;;;24.00;;
37943;SDS011;23767;42.024;23.086;2024-01-25T07:55:43;30.30;;;22.20;;
37943;SDS011;23767;42.024;23.086;2024-01-25T07:58:08;30.67;;;22.73;;
37943;SDS011;23767;42.024;23.086;2024-01-25T08:00:34;31.90;;;25.23;;
37943;SDS011;23767;42.024;23.086;2024-01-25T08:03:00;40.80;;;28.67;;
37943;SDS011;23767;42.024;23.086;2024-01-25T08:05:25;32.10;;;25.67;;
37943;SDS011;23767;42.024;23.086;2024-01-25T08:07:51;31.15;;;25.50;;
37943;SDS011;23767;42.024;23.086;2024-01-25T08:10:16;34.30;;;28.05;;
37943;SDS011;23767;42.024;23.086;2024-01-25T08:12:42;35.78;;;29.20;;
37943;SDS011;23767;42.024;23.086;2024-01-25T08:15:13;36.30;;;29.63;;
37943;SDS011;23767;42.024;23.086;2024-01-25T08:17:39;36.03;;;29.55;;
37943;SDS011;23767;42.024;23.086;2024-01-25T08:20:05;37.33;;;30.52;;
37943;SDS011;23767;42.024;23.086;2024-01-25T08:22:31;39.47;;;29.35;;
37943;SDS011;23767;42.024;23.086;2024-01-25T08:24:57;36.75;;;29.35;;
37943;SDS011;23767;42.024;23.086;2024-01-25T08:27:23;40.85;;;33.80;;
37943;SDS011;23767;42.024;23.086;2024-01-25T08:29:49;44.05;;;34.78;;
37943;SDS011;23767;42.024;23.086;2024-01-25T08:32:15;50.05;;;37.55;;
37943;SDS011;23767;42.024;23.086;2024-01-25T08:34:40;48.08;;;36.97;;
37943;SDS011;23767;42.024;23.086;2024-01-25T08:37:06;40.72;;;31.55;;
37943;SDS011;23767;42.024;23.086;2024-01-25T08:39:32;38.50;;;28.13;;
37943;SDS011;23767;42.024;23.086;2024-01-25T08:41:58;32.45;;;24.95;;
37943;SDS011;23767;42.024;23.086;2024-01-25T08:44:27;28.33;;;22.77;;
37943;SDS011;23767;42.024;23.086;2024-01-25T08:46:52;26.90;;;20.85;;
37943;SDS011;23767;42.024;23.086;2024-01-25T08:49:18;26.67;;;21.90;;
37943;SDS011;23767;42.024;23.086;2024-01-25T08:51:44;29.60;;;21.77;;
37943;SDS011;23767;42.024;23.086;2024-01-25T08:54:10;28.60;;;21.58;;
37943;SDS011;23767;42.024;23.086;2024-01-25T08:56:35;28.95;;;21.85;;
37943;SDS011;23767;42.024;23.086;2024-01-25T08:59:01;29.48;;;21.65;;
37943;SDS011;23767;42.024;23.086;2024-01-25T09:01:27;27.33;;;21.92;;
37943;SDS011;23767;42.024;23.086;2024-01-25T09:03:53;27.83;;;21.92;;
37943;SDS011;23767;42.024;23.086;2024-01-25T09:06:19;28.50;;;22.85;;
37943;SDS011;23767;42.024;23.086;2024-01-25T09:08:44;32.03;;;24.83;;
37943;SDS011;23767;42.024;23.086;2024-01-25T09:11:10;32.05;;;24.10;;
37943;SDS011;23767;42.024;23.086;2024-01-25T09:13:36;29.10;;;23.38;;
37943;SDS011;23767;42.024;23.086;2024-01-25T09:16:01;27.65;;;22.25;;
37943;SDS011;23767;42.024;23.086;2024-01-25T09:18:27;29.85;;;23.15;;
37943;SDS011;23767;42.024;23.086;2024-01-25T09:20:53;30.63;;;23.85;;
37943;SDS011;23767;42.024;23.086;2024-01-25T09:23:18;31.95;;;22.42;;
37943;SDS011;23767;42.024;23.086;2024-01-25T09:25:45;24.58;;;20.02;;
37943;SDS011;23767;42.024;23.086;2024-01-25T09:28:11;24.00;;;19.52;;
37943;SDS011;23767;42.024;23.086;2024-01-25T09:30:37;27.15;;;21.67;;
37943;SDS011;23767;42.024;23.086;2024-01-25T09:33:06;24.85;;;20.05;;
37943;SDS011;23767;42.024;23.086;2024-01-25T09:35:32;21.58;;;17.73;;
37943;SDS011;23767;42.024;23.086;2024-01-25T09:37:58;22.17;;;17.88;;
37943;SDS011;23767;42.024;23.086;2024-01-25T09:40:24;24.40;;;17.92;;
37943;SDS011;23767;42.024;23.086;2024-01-25T09:42:50;22.80;;;18.73;;
37943;SDS011;23767;42.024;23.086;2024-01-25T09:45:18;22.70;;;18.92;;
37943;SDS011;23767;42.024;23.086;2024-01-25T09:47:44;23.90;;;17.77;;
37943;SDS011;23767;42.024;23.086;2024-01-25T09:50:10;24.48;;;18.52;;
37943;SDS011;23767;42.024;23.086;2024-01-25T09:52:36;27.02;;;21.23;;
37943;SDS011;23767;42.024;23.086;2024-01-25T09:55:04;23.67;;;18.77;;
37943;SDS011;23767;42.024;23.086;2024-01-25T09:57:38;23.92;;;19.17;;
37943;SDS011;23767;42.024;23.086;2024-01-25T10:00:08;22.85;;;16.08;;
37943;SDS011;23767;42.024;23.086;2024-01-25T10:02:36;22.13;;;17.10;;
37943;SDS011;23767;42.024;23.086;2024-01-25T10:05:03;42.25;;;32.22;;
37943;SDS011;23767;42.024;23.086;2024-01-25T10:08:02;27.73;;;20.70;;
37943;SDS011;23767;42.024;23.086;2024-01-25T10:10:26;42.22;;;29.35;;
37943;SDS011;23767;42.024;23.086;2024-01-25T10:12:51;22.05;;;16.25;;
37943;SDS011;23767;42.024;23.086;2024-01-25T10:15:20;20.33;;;14.65;;
37943;SDS011;23767;42.024;23.086;2024-01-25T10:17:48;21.00;;;14.60;;
37943;SDS011;23767;42.024;23.086;2024-01-25T10:20:14;21.80;;;16.10;;
37943;SDS011;23767;42.024;23.086;2024-01-25T10:22:41;65.00;;;47.47;;
37943;SDS011;23767;42.024;23.086;2024-01-25T10:25:16;27.80;;;20.73;;
37943;SDS011;23767;42.024;23.086;2024-01-25T10:27:42;24.33;;;18.50;;
37943;SDS011;23767;42.024;23.086;2024-01-25T10:30:08;31.35;;;22.02;;
37943;SDS011;23767;42.024;23.086;2024-01-25T10:32:36;22.70;;;17.92;;
37943;SDS011;23767;42.024;23.086;2024-01-25T10:35:02;27.33;;;19.33;;
37943;SDS011;23767;42.024;23.086;2024-01-25T10:37:28;19.38;;;15.00;;
37943;SDS011;23767;42.024;23.086;2024-01-25T10:39:56;19.83;;;15.25;;
37943;SDS011;23767;42.024;23.086;2024-01-25T10:42:23;18.23;;;12.75;;
37943;SDS011;23767;42.024;23.086;2024-01-25T10:44:49;17.67;;;12.35;;
37943;SDS011;23767;42.024;23.086;2024-01-25T10:47:14;13.98;;;10.43;;
37943;SDS011;23767;42.024;23.086;2024-01-25T10:49:40;22.00;;;17.00;;
37943;SDS011;23767;42.024;23.086;2024-01-25T10:52:06;18.25;;;12.93;;
37943;SDS011;23767;42.024;23.086;2024-01-25T10:54:32;14.30;;;10.88;;
37943;SDS011;23767;42.024;23.086;2024-01-25T10:56:58;15.55;;;10.73;;
37943;SDS011;23767;42.024;23.086;2024-01-25T10:59:24;13.77;;;10.75;;
37943;SDS011;23767;42.024;23.086;2024-01-25T11:01:50;16.00;;;11.52;;
37943;SDS011;23767;42.024;23.086;2024-01-25T11:04:22;18.23;;;12.43;;
37943;SDS011;23767;42.024;23.086;2024-01-25T11:06:49;16.58;;;11.70;;
37943;SDS011;23767;42.024;23.086;2024-01-25T11:09:18;15.25;;;11.52;;
37943;SDS011;23767;42.024;23.086;2024-01-25T11:11:46;14.45;;;10.00;;
37943;SDS011;23767;42.024;23.086;2024-01-25T11:14:14;16.38;;;10.80;;
37943;SDS011;23767;42.024;23.086;2024-01-25T11:16:41;13.68;;;9.90;;
37943;SDS011;23767;42.024;23.086;2024-01-25T11:19:15;16.45;;;10.55;;
37943;SDS011;23767;42.024;23.086;2024-01-25T11:21:49;13.77;;;9.45;;
37943;SDS011;23767;42.024;23.086;2024-01-25T11:24:22;19.05;;;11.77;;
37943;SDS011;23767;42.024;23.086;2024-01-25T11:26:49;16.45;;;10.30;;
37943;SDS011;23767;42.024;23.086;2024-01-25T11:29:15;19.90;;;13.27;;
37943;SDS011;23767;42.024;23.086;2024-01-25T11:31:45;14.65;;;10.43;;
37943;SDS011;23767;42.024;23.086;2024-01-25T11:34:11;15.95;;;10.60;;
37943;SDS011;23767;42.024;23.086;2024-01-25T11:36:38;18.02;;;11.55;;
37943;SDS011;23767;42.024;23.086;2024-01-25T11:39:04;16.52;;;12.15;;
37943;SDS011;23767;42.024;23.086;2024-01-25T11:41:31;15.18;;;10.80;;
37943;SDS011;23767;42.024;23.086;2024-01-25T11:43:57;16.30;;;11.48;;
37943;SDS011;23767;42.024;23.086;2024-01-25T11:46:23;20.83;;;14.48;;
37943;SDS011;23767;42.024;23.086;2024-01-25T11:48:49;36.55;;;24.80;;
37943;SDS011;23767;42.024;23.086;2024-01-25T11:51:15;24.80;;;16.38;;
37943;SDS011;23767;42.024;23.086;2024-01-25T11:53:41;18.55;;;12.48;;
37943;SDS011;23767;42.024;23.086;2024-01-25T11:56:07;19.88;;;12.07;;
37943;SDS011;23767;42.024;23.086;2024-01-25T11:58:38;21.38;;;13.98;;
37943;SDS011;23767;42.024;23.086;2024-01-25T12:01:05;26.63;;;16.30;;
37943;SDS011;23767;42.024;23.086;2024-01-25T12:03:33;24.30;;;15.95;;
37943;SDS011;23767;42.024;23.086;2024-01-25T12:06:04;19.58;;;12.57;;
37943;SDS011;23767;42.024;23.086;2024-01-25T12:08:31;16.42;;;12.27;;
37943;SDS011;23767;42.024;23.086;2024-01-25T12:11:02;21.02;;;13.07;;
37943;SDS011;23767;42.024;23.086;2024-01-25T12:13:32;18.00;;;12.45;;
37943;SDS011;23767;42.024;23.086;2024-01-25T12:15:59;25.88;;;12.88;;
37943;SDS011;23767;42.024;23.086;2024-01-25T12:18:25;19.52;;;14.55;;
37943;SDS011;23767;42.024;23.086;2024-01-25T12:20:51;18.08;;;12.52;;
37943;SDS011;23767;42.024;23.086;2024-01-25T12:23:17;19.98;;;13.50;;
37943;SDS011;23767;42.024;23.086;2024-01-25T12:25:42;14.32;;;11.43;;
37943;SDS011;23767;42.024;23.086;2024-01-25T12:28:09;17.02;;;13.00;;
37943;SDS011;23767;42.024;23.086;2024-01-25T12:30:35;19.67;;;13.23;;
37943;SDS011;23767;42.024;23.086;2024-01-25T12:33:00;17.27;;;11.98;;
37943;SDS011;23767;42.024;23.086;2024-01-25T12:35:26;18.63;;;13.27;;
37943;SDS011;23767;42.024;23.086;2024-01-25T12:37:52;20.98;;;15.20;;
37943;SDS011;23767;42.024;23.086;2024-01-25T12:40:17;25.98;;;17.83;;
37943;SDS011;23767;42.024;23.086;2024-01-25T12:42:43;26.45;;;18.42;;
37943;SDS011;23767;42.024;23.086;2024-01-25T12:45:09;25.55;;;17.63;;
37943;SDS011;23767;42.024;23.086;2024-01-25T12:47:35;23.20;;;16.70;;
37943;SDS011;23767;42.024;23.086;2024-01-25T12:50:00;18.88;;;15.23;;
37943;SDS011;23767;42.024;23.086;2024-01-25T12:52:26;19.48;;;16.35;;
37943;SDS011;23767;42.024;23.086;2024-01-25T12:54:52;19.45;;;14.10;;
37943;SDS011;23767;42.024;23.086;2024-01-25T12:57:17;19.33;;;13.63;;
37943;SDS011;23767;42.024;23.086;2024-01-25T12:59:43;19.05;;;14.10;;
37943;SDS011;23767;42.024;23.086;2024-01-25T13:02:10;19.85;;;14.32;;
37943;SDS011;23767;42.024;23.086;2024-01-25T13:04:37;21.48;;;15.40;;
37943;SDS011;23767;42.024;23.086;2024-01-25T13:07:03;20.10;;;15.05;;
37943;SDS011;23767;42.024;23.086;2024-01-25T13:09:29;20.98;;;15.75;;
37943;SDS011;23767;42.024;23.086;2024-01-25T13:11:58;21.52;;;15.75;;
37943;SDS011;23767;42.024;23.086;2024-01-25T13:14:24;23.33;;;16.38;;
37943;SDS011;23767;42.024;23.086;2024-01-25T13:16:50;26.35;;;18.15;;
37943;SDS011;23767;42.024;23.086;2024-01-25T13:19:15;23.60;;;17.77;;
37943;SDS011;23767;42.024;23.086;2024-01-25T13:21:41;29.17;;;18.77;;
37943;SDS011;23767;42.024;23.086;2024-01-25T13:24:07;25.67;;;19.33;;
37943;SDS011;23767;42.024;23.086;2024-01-25T13:26:34;26.08;;;18.10;;
37943;SDS011;23767;42.024;23.086;2024-01-25T13:29:00;24.83;;;19.10;;
37943;SDS011;23767;42.024;23.086;2024-01-25T13:31:26;26.23;;;18.75;;
37943;SDS011;23767;42.024;23.086;2024-01-25T13:33:52;24.40;;;18.33;;
37943;SDS011;23767;42.024;23.086;2024-01-25T13:36:17;22.75;;;15.57;;
37943;SDS011;23767;42.024;23.086;2024-01-25T13:38:43;22.98;;;16.63;;
37943;SDS011;23767;42.024;23.086;2024-01-25T13:41:09;24.00;;;17.58;;
37943;SDS011;23767;42.024;23.086;2024-01-25T13:43:34;23.27;;;17.77;;
37943;SDS011;23767;42.024;23.086;2024-01-25T13:46:00;23.77;;;18.00;;
37943;SDS011;23767;42.024;23.086;2024-01-25T13:48:26;22.25;;;16.13;;
37943;SDS011;23767;42.024;23.086;2024-01-25T13:50:51;25.95;;;19.17;;
37943;SDS011;23767;42.024;23.086;2024-01-25T13:53:17;26.73;;;18.60;;
37943;SDS011;23767;42.024;23.086;2024-01-25T13:55:43;20.98;;;17.10;;
37943;SDS011;23767;42.024;23.086;2024-01-25T13:58:09;22.05;;;17.00;;
37943;SDS011;23767;42.024;23.086;2024-01-25T14:00:35;26.58;;;18.33;;
37943;SDS011;23767;42.024;23.086;2024-01-25T14:03:01;31.02;;;22.42;;
37943;SDS011;23767;42.024;23.086;2024-01-25T14:05:26;35.00;;;25.00;;